Time;durP1;ratioP1;P1;durP2;ratioP2;P2;SDS_P1;SDS_P2;PMS_P1;PMS_P2;Temp;Humidity;BMP_temperature;BMP_pressure;BME280_temperature;BME280_humidity;BME280_pressure;Samples;Min_cycle;Max_cycle;Signal;HPM_P1;HPM_P2
2023/07/07 00:01:35;;;;;;;13.93;9.43;;;;;;;17.00;87.12;101198.81;4958303;57;1217240;-74
2023/07/07 00:06:42;;;;;;;10.33;8.53;;;;;;;16.90;87.20;101206.51;5001307;57;1156011;-72
2023/07/07 00:11:48;;;;;;;10.63;8.57;;;;;;;16.88;87.86;101210.16;5038878;57;1141039;-68
2023/07/07 00:17:01;;;;;;;16.87;9.27;;;;;;;16.75;88.42;101202.09;4999005;57;1140718;-72
2023/07/07 00:22:06;;;;;;;14.60;8.70;;;;;;;16.87;89.81;101212.48;5018183;57;1140989;-74
2023/07/07 00:27:11;;;;;;;15.13;9.20;;;;;;;16.98;90.41;101211.96;4998129;57;1140951;-72
2023/07/07 00:32:17;;;;;;;7.73;5.70;;;;;;;17.09;90.03;101210.48;4938285;58;1140896;-77
2023/07/07 00:37:23;;;;;;;11.57;6.80;;;;;;;17.15;89.74;101209.89;4938637;58;1138578;-74
2023/07/07 00:42:28;;;;;;;17.17;10.40;;;;;;;17.22;89.62;101208.34;5005279;57;1141013;-72
2023/07/07 00:47:56;;;;;;;12.97;7.87;;;;;;;17.19;88.76;101209.47;5019193;57;1143030;-73
2023/07/07 00:53:02;;;;;;;12.47;6.77;;;;;;;16.95;86.97;101217.62;5019588;57;1141122;-73
2023/07/07 00:58:12;;;;;;;13.20;8.10;;;;;;;16.73;88.64;101221.42;5020330;57;1146917;-75
2023/07/07 01:03:28;;;;;;;7.47;6.50;;;;;;;16.75;89.76;101224.80;5039482;57;1141044;-76
2023/07/07 01:08:36;;;;;;;9.70;7.03;;;;;;;16.82;90.10;101229.42;5029784;57;1138779;-72
2023/07/07 01:13:42;;;;;;;10.33;6.83;;;;;;;16.82;88.82;101216.55;5034855;57;1138839;-72
2023/07/07 01:19:23;;;;;;;6.77;5.23;;;;;;;16.79;88.99;101220.88;5055191;57;1140930;-71
2023/07/07 01:24:36;;;;;;;10.10;5.53;;;;;;;16.83;89.44;101229.77;5035491;57;1139025;-73
2023/07/07 01:30:08;;;;;;;7.77;5.83;;;;;;;16.83;89.46;101216.91;4953669;58;1141224;-75
2023/07/07 01:35:18;;;;;;;6.17;5.07;;;;;;;16.79;89.26;101217.71;4953967;58;1138894;-69
2023/07/07 01:40:50;;;;;;;10.10;5.73;;;;;;;16.72;88.67;101225.08;5048956;57;1138822;-75
2023/07/07 01:46:06;;;;;;;8.90;5.50;;;;;;;16.66;88.34;101217.62;5034599;57;1140883;-73
2023/07/07 01:51:15;;;;;;;8.73;6.10;;;;;;;16.42;86.94;101231.38;4942038;58;1138862;-75
2023/07/07 01:56:24;;;;;;;11.10;6.70;;;;;;;16.12;86.85;101236.31;5055103;57;1138906;-74
2023/07/07 02:01:32;;;;;;;11.90;7.10;;;;;;;15.94;87.54;101236.61;5034797;57;1140941;-74
2023/07/07 02:06:37;;;;;;;8.40;6.27;;;;;;;15.97;89.96;101231.01;5034644;57;1140931;-72
2023/07/07 02:11:44;;;;;;;9.97;6.47;;;;;;;16.03;90.32;101227.32;5062069;57;1138767;-75
2023/07/07 02:16:49;;;;;;;9.03;6.70;;;;;;;15.90;88.58;101234.70;5043166;57;1138726;-72
2023/07/07 02:21:55;;;;;;;9.03;6.60;;;;;;;15.63;88.30;101237.98;5043294;57;1146932;-74
2023/07/07 02:27:01;;;;;;;9.03;5.15;;;;;;;15.46;89.15;101232.75;5004391;56;1138994;-72
2023/07/07 02:32:08;;;;;;;6.40;4.95;;;;;;;15.26;89.41;101231.47;4982210;57;1138901;-74
2023/07/07 02:37:15;;;;;;;11.12;5.42;;;;;;;15.30;92.00;101226.20;5042932;57;1138840;-75
2023/07/07 02:42:20;;;;;;;9.93;6.70;;;;;;;15.51;93.63;101216.84;5041619;57;1140993;-71
2023/07/07 02:47:26;;;;;;;8.90;6.50;;;;;;;15.60;93.04;101226.23;5061907;57;1138834;-74
2023/07/07 02:52:32;;;;;;;9.93;4.53;;;;;;;15.65;92.77;101230.69;5043144;57;1138767;-71
2023/07/07 02:57:38;;;;;;;9.27;4.27;;;;;;;15.69;92.93;101237.45;5033321;57;1138783;-75
2023/07/07 03:02:43;;;;;;;8.30;3.73;;;;;;;15.74;92.71;101239.20;5063856;57;1138655;-73
2023/07/07 03:07:49;;;;;;;6.53;5.27;;;;;;;15.66;92.40;101241.72;5041851;57;1138642;-70
2023/07/07 03:12:55;;;;;;;8.23;4.77;;;;;;;15.64;93.07;101241.00;5022835;57;1255559;-75
2023/07/07 03:18:01;;;;;;;8.26;5.74;;;;;;;15.71;93.60;101250.17;4971761;57;1138937;-70
2023/07/07 03:23:07;;;;;;;5.80;4.25;;;;;;;15.68;93.08;101254.43;5039330;57;1138873;-73
2023/07/07 03:28:12;;;;;;;7.42;4.00;;;;;;;15.64;92.90;101258.33;4961616;57;1138886;-75
2023/07/07 03:33:19;;;;;;;4.93;3.80;;;;;;;15.66;92.67;101261.72;4931765;58;1139098;-73
2023/07/07 03:38:26;;;;;;;8.17;4.43;;;;;;;15.41;92.48;101266.97;4951389;58;1138902;-69
2023/07/07 03:43:35;;;;;;;8.40;5.50;;;;;;;15.31;94.27;101257.20;4940916;58;1138640;-73
2023/07/07 03:48:41;;;;;;;5.37;4.83;;;;;;;15.20;95.37;101268.80;4969013;57;1138820;-74
2023/07/07 03:53:47;;;;;;;12.60;4.50;;;;;;;15.15;96.37;101278.99;4984321;57;1138732;-72
2023/07/07 03:58:54;;;;;;;7.03;4.53;;;;;;;15.12;97.26;101284.60;4936946;58;1140941;-73
2023/07/07 04:04:00;;;;;;;6.22;4.35;;;;;;;15.10;98.17;101285.22;4937198;58;1139069;-74
2023/07/07 04:09:05;;;;;;;7.62;3.98;;;;;;;15.11;99.09;101290.42;4956041;58;1138884;-75
2023/07/07 04:14:11;;;;;;;8.35;4.80;;;;;;;15.12;99.65;101300.59;4936951;58;1138883;-72
2023/07/07 04:19:17;;;;;;;6.77;4.43;;;;;;;15.06;100.00;101303.27;4936663;57;1138828;-71
2023/07/07 04:24:22;;;;;;;6.30;4.33;;;;;;;14.99;100.00;101301.23;4955919;57;1141025;-74
2023/07/07 04:29:29;;;;;;;6.90;4.20;;;;;;;14.94;100.00;101311.45;5015152;57;1140714;-71
2023/07/07 04:34:35;;;;;;;4.30;3.90;;;;;;;14.99;100.00;101318.55;5021272;56;1140740;-70
2023/07/07 04:39:41;;;;;;;4.17;3.80;;;;;;;15.07;100.00;101322.28;5055308;57;1140778;-72
2023/07/07 04:44:47;;;;;;;5.10;4.10;;;;;;;15.25;100.00;101328.37;5035550;57;1140916;-75
2023/07/07 04:49:52;;;;;;;4.70;3.93;;;;;;;15.37;100.00;101335.33;5035161;57;1140908;-75
2023/07/07 04:54:58;;;;;;;8.23;4.00;;;;;;;15.40;100.00;101339.92;5014212;57;1141244;-73
2023/07/07 05:00:07;;;;;;;5.40;4.25;;;;;;;15.46;100.00;101339.87;5037530;57;1141036;-74
2023/07/07 05:05:13;;;;;;;4.45;4.05;;;;;;;15.59;100.00;101340.54;5017407;57;1141022;-74
2023/07/07 05:10:19;;;;;;;9.90;4.77;;;;;;;15.76;100.00;101337.27;5017716;57;1140927;-71
2023/07/07 05:15:26;;;;;;;8.63;5.93;;;;;;;15.97;100.00;101335.06;5045377;57;1140628;-73
2023/07/07 05:20:31;;;;;;;6.80;5.20;;;;;;;16.15;100.00;101338.80;5040178;57;1140582;-71
2023/07/07 05:25:38;;;;;;;6.50;5.23;;;;;;;16.36;100.00;101344.89;5051073;57;1140821;-71
2023/07/07 05:30:44;;;;;;;7.64;5.38;;;;;;;16.53;100.00;101349.57;5073197;57;1141001;-73
2023/07/07 05:35:55;;;;;;;11.77;5.57;;;;;;;16.70;100.00;101344.58;5053791;57;1140892;-74
2023/07/07 05:41:01;;;;;;;5.23;4.27;;;;;;;16.93;100.00;101343.84;5053423;57;1143213;-74
2023/07/07 05:46:13;;;;;;;10.35;5.47;;;;;;;17.20;100.00;101343.98;5053040;57;1140839;-71
2023/07/07 05:51:20;;;;;;;7.50;5.17;;;;;;;17.49;100.00;101341.27;5072980;57;1143240;-75
2023/07/07 05:56:27;;;;;;;8.37;4.50;;;;;;;17.72;100.00;101346.65;5053112;57;1140592;-71
2023/07/07 06:01:33;;;;;;;8.10;5.10;;;;;;;17.96;100.00;101349.34;5053451;57;1141216;-71
2023/07/07 06:06:39;;;;;;;6.70;4.07;;;;;;;18.17;100.00;101356.66;5073403;56;1141033;-69
2023/07/07 06:11:47;;;;;;;6.37;4.17;;;;;;;18.37;100.00;101356.89;5053123;56;1140816;-74
2023/07/07 06:16:53;;;;;;;5.30;3.47;;;;;;;18.54;100.00;101355.25;5050160;56;1140970;-75
2023/07/07 06:21:59;;;;;;;4.45;3.30;;;;;;;18.77;100.00;101367.28;5065060;56;1140995;-75
2023/07/07 06:27:05;;;;;;;8.30;3.40;;;;;;;18.90;96.98;101374.95;5078409;56;1140877;-75
2023/07/07 06:32:11;;;;;;;5.90;2.87;;;;;;;19.07;95.06;101384.84;5042947;57;1138722;-73
2023/07/07 06:37:17;;;;;;;2.83;2.43;;;;;;;19.24;94.25;101388.52;5043075;57;1138811;-73
2023/07/07 06:42:23;;;;;;;5.03;2.15;;;;;;;19.44;92.83;101391.85;5062565;57;1139112;-72
2023/07/07 06:47:30;;;;;;;2.60;2.40;;;;;;;19.68;90.64;101392.59;4972745;57;1138906;-74
2023/07/07 06:52:35;;;;;;;4.03;2.08;;;;;;;19.90;87.67;101399.61;5042685;57;1138717;-73
2023/07/07 06:57:41;;;;;;;7.40;1.92;;;;;;;20.11;88.49;101401.09;5059069;57;1138850;-75
2023/07/07 07:02:47;;;;;;;2.80;1.87;;;;;;;20.35;84.92;101395.33;5023652;57;1139253;-76
2023/07/07 07:07:53;;;;;;;6.90;2.42;;;;;;;20.44;81.00;101394.06;4999503;57;1138888;-76
2023/07/07 07:13:00;;;;;;;1.70;1.60;;;;;;;20.66;80.72;101392.11;4975529;57;1138795;-72
2023/07/07 07:18:06;;;;;;;2.62;2.00;;;;;;;20.86;79.25;101400.75;5067878;57;1138962;-73
2023/07/07 07:23:11;;;;;;;1.52;1.42;;;;;;;21.11;79.71;101411.89;5044154;57;1138700;-71
2023/07/07 07:28:17;;;;;;;1.87;1.60;;;;;;;21.38;77.79;101409.45;5028444;56;1138771;-76
2023/07/07 07:33:24;;;;;;;3.83;1.65;;;;;;;21.53;73.64;101412.30;5042739;57;1138767;-75
2023/07/07 07:38:29;;;;;;;7.65;1.60;;;;;;;21.62;72.96;101418.02;5022955;57;1138812;-72
2023/07/07 07:43:35;;;;;;;1.85;1.35;;;;;;;21.93;73.92;101409.56;5025719;57;1138814;-75
2023/07/07 07:48:41;;;;;;;1.42;1.30;;;;;;;21.97;67.90;101410.91;5064580;57;1138829;-75
2023/07/07 07:53:46;;;;;;;4.65;1.77;;;;;;;21.95;63.01;101417.48;5053394;57;1139074;-75
2023/07/07 07:58:52;;;;;;;1.47;1.37;;;;;;;21.94;64.46;101419.33;5052253;57;1138860;-70
2023/07/07 08:03:58;;;;;;;1.86;0.88;;;;;;;22.25;66.99;101427.54;5052813;57;1138732;-71
2023/07/07 08:09:04;;;;;;;2.00;1.55;;;;;;;22.56;64.74;101426.76;5072685;57;1138785;-75
2023/07/07 08:14:18;;;;;;;2.45;1.10;;;;;;;22.72;63.87;101429.38;4989461;57;1138957;-75
2023/07/07 08:19:24;;;;;;;1.42;1.10;;;;;;;22.88;62.17;101427.98;5050860;57;1138726;-78
2023/07/07 08:24:30;;;;;;;1.50;1.15;;;;;;;23.01;63.68;101426.89;5029444;57;1138770;-71
2023/07/07 08:29:36;;;;;;;3.12;1.50;;;;;;;23.19;62.18;101425.77;4999211;56;1138796;-72
2023/07/07 08:34:42;;;;;;;2.72;1.50;;;;;;;23.39;62.31;101428.30;5040953;57;1138992;-74
2023/07/07 08:39:48;;;;;;;5.45;1.30;;;;;;;23.60;63.28;101421.76;5054308;57;1138676;-75
2023/07/07 08:44:56;;;;;;;1.75;1.37;;;;;;;23.88;63.97;101423.35;5039501;56;1138860;-72
2023/07/07 08:50:13;;;;;;;3.18;1.38;;;;;;;23.86;59.76;101411.89;5050643;57;1138936;-72
2023/07/07 08:55:56;;;;;;;1.47;1.37;;;;;;;23.91;59.33;101412.19;5093741;56;1138752;-75
2023/07/07 09:01:27;;;;;;;6.72;1.30;;;;;;;23.99;59.26;101414.78;5052960;57;1139191;-75
2023/07/07 09:07:18;;;;;;;3.37;1.67;;;;;;;24.01;53.52;101431.66;5069400;56;1138562;-78
2023/07/07 09:12:45;;;;;;;1.70;1.45;;;;;;;23.78;52.82;101429.03;5091165;56;1138810;-76
2023/07/07 09:17:58;;;;;;;2.37;2.00;;;;;;;23.77;52.92;101430.56;4890734;58;1138785;-75
2023/07/07 09:23:14;;;;;;;2.53;1.97;;;;;;;23.84;53.90;101426.09;4883618;58;1176802;-73
2023/07/07 09:28:21;;;;;;;4.20;1.50;;;;;;;24.13;53.94;101419.91;5161357;56;1138995;-75
2023/07/07 09:33:27;;;;;;;3.27;1.70;;;;;;;24.46;56.56;101421.72;5140864;56;1138903;-73
2023/07/07 09:38:53;;;;;;;6.40;1.50;;;;;;;24.57;54.52;101416.37;5140786;56;1138581;-78
2023/07/07 09:44:39;;;;;;;1.73;1.63;;;;;;;24.39;53.83;101421.66;5114247;56;1139336;-70
2023/07/07 09:50:04;;;;;;;2.00;1.80;;;;;;;24.26;52.20;101413.36;5062356;57;1139004;-73
2023/07/07 09:55:31;;;;;;;3.37;2.30;;;;;;;24.53;53.09;101411.33;5041664;57;1138813;-74
2023/07/07 10:00:38;;;;;;;2.12;1.70;;;;;;;24.74;52.78;101416.48;5042601;57;1138871;-73
2023/07/07 10:05:45;;;;;;;2.27;1.70;;;;;;;24.94;47.91;101408.61;5002194;57;1138809;-79
2023/07/07 10:11:29;;;;;;;3.00;1.47;;;;;;;24.98;51.57;101409.91;5042146;57;1138687;-71
2023/07/07 10:16:39;;;;;;;1.70;1.60;;;;;;;24.87;51.64;101410.71;4959988;58;1138838;-71
2023/07/07 10:21:45;;;;;;;1.45;1.42;;;;;;;24.90;50.77;101413.56;5042779;57;1138888;-73
2023/07/07 10:26:51;;;;;;;1.52;1.42;;;;;;;25.07;52.07;101409.59;4979183;58;1139101;-72
2023/07/07 10:31:57;;;;;;;1.80;1.70;;;;;;;25.23;51.18;101406.63;5040672;56;1138909;-73
2023/07/07 10:37:02;;;;;;;3.97;1.80;;;;;;;25.27;52.09;101403.55;4987838;56;1139176;-70
2023/07/07 10:42:10;;;;;;;1.80;1.40;;;;;;;25.13;52.16;101407.99;5012148;56;1138819;-77
2023/07/07 10:47:23;;;;;;;3.17;1.80;;;;;;;24.81;49.11;101403.34;4974024;57;1138731;-72
2023/07/07 10:52:51;;;;;;;9.38;1.62;;;;;;;24.81;50.71;101399.80;5042346;57;1138882;-70
2023/07/07 10:58:33;;;;;;;3.50;1.37;;;;;;;25.07;52.13;101392.51;5004221;57;1138820;-73
2023/07/07 11:04:04;;;;;;;2.17;1.25;;;;;;;25.48;52.67;101392.71;5061829;57;1138726;-72
2023/07/07 11:09:20;;;;;;;1.80;1.70;;;;;;;25.62;50.04;101388.27;5043228;57;1138682;-75
2023/07/07 11:14:44;;;;;;;7.28;1.62;;;;;;;25.73;50.97;101387.20;5040563;57;1138566;-76
2023/07/07 11:20:18;;;;;;;2.85;1.77;;;;;;;26.10;52.50;101379.75;5062190;57;1138817;-70
2023/07/07 11:25:46;;;;;;;5.50;1.75;;;;;;;26.44;50.80;101376.17;5043287;57;1138772;-72
2023/07/07 11:31:17;;;;;;;2.35;2.15;;;;;;;26.73;51.08;101376.41;5051949;57;1139459;-73
2023/07/07 11:36:54;;;;;;;3.12;1.57;;;;;;;26.86;49.00;101370.49;5053328;57;1138747;-72
2023/07/07 11:42:22;;;;;;;3.47;1.40;;;;;;;26.91;49.02;101374.77;4976378;57;1138952;-75
2023/07/07 11:47:50;;;;;;;4.75;1.98;;;;;;;26.95;49.58;101366.56;5065448;57;1138741;-72
2023/07/07 11:53:12;;;;;;;1.47;1.10;;;;;;;27.17;50.49;101367.77;4931861;58;1139181;-67
2023/07/07 11:58:33;;;;;;;1.77;1.20;;;;;;;27.19;46.96;101369.20;4886996;59;1138748;-73
2023/07/07 12:04:14;;;;;;;3.17;1.40;;;;;;;26.71;42.75;101357.61;4828191;60;1138963;-75
2023/07/07 12:09:35;;;;;;;1.90;1.65;;;;;;;26.71;42.75;101357.61;4809065;60;1139013;-69
2023/07/07 12:15:07;;;;;;;2.83;1.62;;;;;;;26.65;42.98;101362.48;4733682;60;1139229;-70
2023/07/07 12:20:19;;;;;;;1.20;1.20;;;;;;;26.84;42.45;101361.72;4734315;60;1138942;-68
2023/07/07 12:25:28;;;;;;;1.25;1.10;;;;;;;27.01;42.59;101361.36;4741696;60;1138941;-72
2023/07/07 12:30:39;;;;;;;3.12;1.65;;;;;;;27.09;43.27;101355.20;4782139;60;1139008;-71
2023/07/07 12:35:54;;;;;;;2.40;1.42;;;;;;;27.39;43.11;101351.56;4780318;60;1138910;-73
2023/07/07 12:41:07;;;;;;;1.25;1.15;;;;;;;27.49;42.32;101349.28;4815906;59;1138967;-70
2023/07/07 12:46:34;;;;;;;5.17;2.05;;;;;;;27.48;43.05;101352.20;4855457;59;1139084;-73
2023/07/07 12:51:39;;;;;;;3.20;1.70;;;;;;;27.41;42.48;101347.28;4874180;57;1139019;-72
2023/07/07 12:57:13;;;;;;;2.37;1.32;;;;;;;27.36;42.61;101349.78;5011231;57;1138735;-73
2023/07/07 13:02:23;;;;;;;3.20;1.60;;;;;;;27.46;44.97;101341.55;4981910;57;1138614;-74
2023/07/07 13:07:32;;;;;;;1.70;1.37;;;;;;;27.75;42.73;101335.37;4990890;57;1138520;-74
2023/07/07 13:12:46;;;;;;;2.87;1.27;;;;;;;27.79;42.31;101330.66;4971405;57;1138696;-71
2023/07/07 13:17:55;;;;;;;3.08;1.32;;;;;;;27.91;43.13;101328.12;4971372;57;1138680;-77
2023/07/07 13:23:11;;;;;;;3.92;1.57;;;;;;;28.17;43.11;101331.27;4971476;57;1138530;-71
2023/07/07 13:28:18;;;;;;;5.25;1.60;;;;;;;28.17;42.37;101340.27;4990433;57;1138705;-76
2023/07/07 13:33:27;;;;;;;2.55;1.42;;;;;;;28.20;42.77;101331.72;4960910;57;1138728;-77
2023/07/07 13:38:37;;;;;;;1.57;1.42;;;;;;;28.33;41.69;101328.94;5023276;57;1138888;-69
2023/07/07 13:43:49;;;;;;;3.05;1.52;;;;;;;28.28;39.05;101327.38;5075657;57;1138937;-75
2023/07/07 13:49:01;;;;;;;1.70;1.60;;;;;;;28.25;40.82;101327.84;5044950;57;1138815;-70
2023/07/07 13:54:12;;;;;;;1.67;1.57;;;;;;;28.46;42.10;101324.48;4986609;57;1139028;-72
2023/07/07 13:59:27;;;;;;;4.17;1.40;;;;;;;28.66;42.69;101326.05;4956709;57;1138696;-76
2023/07/07 14:04:38;;;;;;;5.60;2.08;;;;;;;28.47;39.69;101323.43;5039247;57;1138728;-72
2023/07/07 14:09:48;;;;;;;5.37;2.15;;;;;;;28.57;39.57;101317.02;4975287;57;1138788;-70
2023/07/07 14:14:57;;;;;;;4.12;1.60;;;;;;;28.74;41.84;101314.05;4881803;57;1139095;-74
2023/07/07 14:20:13;;;;;;;1.53;1.30;;;;;;;28.81;41.18;101319.50;4936236;57;1140314;-71
2023/07/07 14:25:22;;;;;;;1.40;1.22;;;;;;;28.73;40.33;101315.11;5010624;56;1139055;-74
2023/07/07 14:30:28;;;;;;;1.85;1.12;;;;;;;28.64;40.00;101309.09;5023224;56;1138856;-74
2023/07/07 14:35:34;;;;;;;2.40;1.02;;;;;;;28.58;39.93;101301.80;4980611;56;1138986;-71
2023/07/07 14:40:47;;;;;;;3.42;1.67;;;;;;;28.65;38.59;101301.24;4979867;57;1138739;-76
2023/07/07 14:46:04;;;;;;;3.20;1.82;;;;;;;28.73;41.32;101302.02;4998143;56;1138856;-74
2023/07/07 14:51:13;;;;;;;1.65;1.50;;;;;;;28.88;41.72;101298.48;5012400;57;1138861;-71
2023/07/07 14:56:35;;;;;;;3.20;1.67;;;;;;;28.88;40.02;101295.23;5034730;56;1138756;-80
2023/07/07 15:01:41;;;;;;;4.22;1.32;;;;;;;28.83;39.30;101291.00;5012722;57;1138678;-77
2023/07/07 15:06:52;;;;;;;1.62;1.52;;;;;;;28.91;39.96;101288.52;4959872;57;1138825;-74
2023/07/07 15:11:59;;;;;;;1.30;1.20;;;;;;;29.03;40.33;101284.86;4959720;57;1138807;-72
2023/07/07 15:17:05;;;;;;;2.75;1.92;;;;;;;29.00;39.79;101278.52;4960888;57;1138912;-80
2023/07/07 15:22:14;;;;;;;5.97;1.55;;;;;;;28.85;36.80;101278.01;4906979;58;1139149;-80
2023/07/07 15:27:20;;;;;;;1.42;1.40;;;;;;;28.86;37.81;101279.67;4882612;57;1138868;-73
2023/07/07 15:32:26;;;;;;;2.67;1.30;;;;;;;28.74;36.99;101269.12;4983891;56;1138831;-74
2023/07/07 15:37:31;;;;;;;3.83;1.42;;;;;;;28.70;38.27;101274.20;4986380;57;1138885;-72
2023/07/07 15:42:37;;;;;;;3.47;1.42;;;;;;;28.68;37.03;101271.39;4960538;57;1138827;-76
2023/07/07 15:47:46;;;;;;;6.08;1.40;;;;;;;28.74;38.50;101273.22;4960019;57;1138675;-75
2023/07/07 15:52:51;;;;;;;1.67;1.55;;;;;;;28.81;37.61;101269.12;4977500;57;1138784;-75
2023/07/07 15:57:57;;;;;;;2.55;2.25;;;;;;;28.88;38.11;101262.56;4960192;57;1138929;-75
2023/07/07 16:03:02;;;;;;;6.03;2.45;;;;;;;28.95;36.98;101259.80;4968433;57;1138687;-77
2023/07/07 16:08:12;;;;;;;4.25;2.05;;;;;;;28.99;36.93;101260.51;4979442;57;1139310;-70
2023/07/07 16:13:18;;;;;;;2.65;1.50;;;;;;;28.98;36.04;101256.11;4960380;57;1138765;-80
2023/07/07 16:18:23;;;;;;;2.03;1.53;;;;;;;29.06;35.26;101257.70;4967490;57;1138827;-81
2023/07/07 16:23:29;;;;;;;1.72;1.60;;;;;;;29.12;35.83;101253.27;4990694;57;1138914;-76
2023/07/07 16:28:34;;;;;;;6.17;1.70;;;;;;;29.07;35.06;101250.37;4960868;57;1138697;-77
2023/07/07 16:33:40;;;;;;;4.53;1.98;;;;;;;29.05;35.14;101248.70;4900098;57;1138990;-78
2023/07/07 16:38:47;;;;;;;2.85;2.60;;;;;;;29.04;34.81;101250.28;4941281;57;1138920;-77
2023/07/07 16:43:57;;;;;;;9.05;5.20;;;;;;;29.03;36.69;101244.00;4941583;58;1138703;-70
2023/07/07 16:49:03;;;;;;;2.27;2.05;;;;;;;28.98;36.89;101253.39;4941943;58;1138680;-78
2023/07/07 16:54:10;;;;;;;2.05;1.30;;;;;;;28.98;37.28;101249.83;4982667;57;1138929;-71
2023/07/07 16:59:17;;;;;;;1.70;1.60;;;;;;;28.98;37.43;101257.47;5037526;57;1138996;-72
2023/07/07 17:04:24;;;;;;;3.42;1.40;;;;;;;28.90;37.21;101250.92;5022968;57;1138886;-75
2023/07/07 17:09:29;;;;;;;4.15;1.60;;;;;;;28.73;37.20;101253.84;5022731;57;1138948;-71
2023/07/07 17:14:35;;;;;;;4.53;1.70;;;;;;;28.67;36.72;101247.41;5042919;56;1138969;-72
2023/07/07 17:19:41;;;;;;;9.20;6.12;;;;;;;28.47;37.74;101250.78;5022933;57;1138857;-70
2023/07/07 17:24:46;;;;;;;3.00;2.65;;;;;;;28.42;37.77;101244.32;5022966;57;1138866;-71
2023/07/07 17:29:52;;;;;;;6.17;2.47;;;;;;;28.33;38.89;101236.95;5044094;57;1138657;-74
2023/07/07 17:34:57;;;;;;;3.05;2.05;;;;;;;28.33;38.89;101236.95;5013568;57;1138846;-75
2023/07/07 17:40:16;;;;;;;10.80;1.60;;;;;;;28.29;38.69;101247.44;5023918;57;1138793;-78
2023/07/07 17:45:22;;;;;;;4.78;1.70;;;;;;;28.16;38.78;101246.64;5062787;57;1140940;-77
2023/07/07 17:50:51;;;;;;;1.50;1.47;;;;;;;28.03;39.11;101248.90;5054425;57;1138717;-75
2023/07/07 17:55:53;;;;;;;2.80;1.47;;;;;;;28.00;38.32;101246.60;5052908;57;1138784;-74
2023/07/07 18:01:00;;;;;;;6.67;1.95;;;;;;;27.98;38.56;101252.78;5088166;56;1138789;-75
2023/07/07 18:06:16;;;;;;;10.05;3.10;;;;;;;27.88;39.05;101249.69;5079611;56;1139076;-73
2023/07/07 18:11:30;;;;;;;16.48;5.83;;;;;;;27.79;39.01;101253.19;5050887;57;1141088;-75
2023/07/07 18:16:42;;;;;;;17.92;7.33;;;;;;;27.68;40.00;101267.42;5053193;57;1140929;-77
2023/07/07 18:21:48;;;;;;;18.85;5.28;;;;;;;27.56;41.07;101263.66;5069995;56;1141016;-76
2023/07/07 18:26:54;;;;;;;17.15;7.53;;;;;;;27.43;41.94;101269.95;5104117;56;1140964;-78
2023/07/07 18:32:00;;;;;;;29.36;8.80;;;;;;;27.42;42.94;101271.52;5053956;57;1141022;-76
2023/07/07 18:37:11;;;;;;;24.02;7.87;;;;;;;27.29;43.69;101266.95;5058279;57;1140920;-76
2023/07/07 18:42:17;;;;;;;24.18;5.12;;;;;;;27.29;45.34;101267.78;5030955;57;1141063;-78
2023/07/07 18:47:23;;;;;;;30.72;12.63;;;;;;;27.19;47.53;101271.98;5057206;57;1140893;-73
2023/07/07 18:52:28;;;;;;;44.50;17.67;;;;;;;27.11;48.49;101274.37;5007204;57;1142941;-75
2023/07/07 18:57:35;;;;;;;47.25;15.08;;;;;;;26.98;48.94;101285.23;4853492;60;1142964;-75
2023/07/07 19:02:41;;;;;;;54.95;11.55;;;;;;;26.83;49.11;101279.12;4826351;60;1143056;-73
2023/07/07 19:07:46;;;;;;;55.73;9.80;;;;;;;26.62;50.45;101275.53;4874196;59;1143349;-76
2023/07/07 19:12:52;;;;;;;18.85;5.87;;;;;;;26.48;50.89;101280.63;4848746;59;1140769;-73
2023/07/07 19:18:02;;;;;;;17.32;8.08;;;;;;;26.38;50.95;101284.25;4853838;59;1140775;-75
2023/07/07 19:23:14;;;;;;;10.83;3.87;;;;;;;26.23;51.08;101287.09;4830303;58;1141096;-73
2023/07/07 19:28:24;;;;;;;22.00;5.85;;;;;;;26.07;51.84;101287.44;5146315;57;1141327;-75
2023/07/07 19:33:29;;;;;;;30.10;9.75;;;;;;;25.84;52.65;101283.66;5062753;56;1140895;-72
2023/07/07 19:38:35;;;;;;;29.40;10.30;;;;;;;25.63;53.44;101295.13;5008388;57;1140889;-72
2023/07/07 19:43:42;;;;;;;34.15;13.40;;;;;;;25.40;54.29;101288.05;5019691;56;1143000;-77
2023/07/07 19:48:49;;;;;;;31.57;14.75;;;;;;;25.29;55.34;101291.30;5044618;56;1143087;-72
2023/07/07 19:53:56;;;;;;;34.88;13.53;;;;;;;25.23;56.21;101299.68;5081125;56;1142895;-74
2023/07/07 19:59:02;;;;;;;34.80;16.12;;;;;;;25.14;56.66;101298.16;5094869;56;1143178;-75
2023/07/07 20:04:07;;;;;;;26.27;10.43;;;;;;;25.04;57.52;101292.77;5021812;57;1142985;-74
2023/07/07 20:09:23;;;;;;;21.80;9.55;;;;;;;24.89;58.39;101290.94;5109316;55;1143080;-71
2023/07/07 20:14:28;;;;;;;20.73;7.73;;;;;;;24.71;58.79;101295.95;5051230;56;1141080;-75
2023/07/07 20:19:34;;;;;;;25.65;7.83;;;;;;;24.51;59.68;101297.09;5049324;56;1140846;-74
2023/07/07 20:24:40;;;;;;;29.12;6.12;;;;;;;24.39;61.12;101300.48;5055298;56;1140975;-75
2023/07/07 20:29:46;;;;;;;14.78;4.83;;;;;;;24.25;61.60;101308.11;5055673;56;1140922;-74
2023/07/07 20:34:52;;;;;;;19.30;4.90;;;;;;;23.80;61.60;101310.82;5075418;56;1140779;-77
2023/07/07 20:39:58;;;;;;;7.72;4.35;;;;;;;23.70;62.63;101299.44;5055652;57;1141149;-72
2023/07/07 20:45:04;;;;;;;52.10;29.52;;;;;;;23.73;63.19;101303.63;5054195;56;1138883;-74
2023/07/07 20:50:25;;;;;;;28.23;11.43;;;;;;;23.69;63.27;101303.67;5072995;56;1142966;-72
2023/07/07 20:55:30;;;;;;;7.50;4.97;;;;;;;23.59;63.40;101305.81;5050799;57;1142913;-74
2023/07/07 21:00:38;;;;;;;5.12;4.25;;;;;;;23.44;63.80;101302.55;5067003;56;1138857;-70
2023/07/07 21:05:44;;;;;;;9.45;4.53;;;;;;;23.37;64.23;101307.02;5076322;57;1138878;-73
2023/07/07 21:10:50;;;;;;;9.38;4.00;;;;;;;23.27;64.25;101310.47;5058261;57;1138848;-74
2023/07/07 21:15:57;;;;;;;5.42;4.00;;;;;;;23.05;64.47;101314.89;5011862;57;1138754;-71
2023/07/07 21:21:02;;;;;;;3.77;3.17;;;;;;;22.85;64.88;101312.34;5069223;57;1139041;-70
2023/07/07 21:26:31;;;;;;;5.17;3.80;;;;;;;22.77;65.56;101312.38;5069441;57;1139000;-74
2023/07/07 21:31:38;;;;;;;8.18;5.08;;;;;;;22.79;66.24;101306.30;5048822;57;1138797;-68
2023/07/07 21:36:45;;;;;;;11.68;6.30;;;;;;;22.77;66.29;101304.29;5048702;56;1138911;-75
2023/07/07 21:41:51;;;;;;;13.60;6.25;;;;;;;22.57;66.23;101306.60;5022349;56;1140828;-71
2023/07/07 21:46:56;;;;;;;12.60;5.83;;;;;;;22.39;66.68;101301.98;5022906;56;1140848;-71
2023/07/07 21:52:06;;;;;;;14.75;5.47;;;;;;;22.20;67.00;101289.78;5033050;57;1140992;-75
2023/07/07 21:57:32;;;;;;;5.20;4.65;;;;;;;22.12;67.80;101292.52;5135546;57;1141133;-73
2023/07/07 22:02:38;;;;;;;13.18;6.00;;;;;;;22.11;68.61;101300.27;5061972;57;1138848;-75
2023/07/07 22:07:45;;;;;;;7.35;4.92;;;;;;;22.08;68.93;101306.01;5029278;56;1140840;-74
2023/07/07 22:12:50;;;;;;;6.37;4.73;;;;;;;21.98;69.00;101305.34;5115850;56;1139309;-73
2023/07/07 22:17:56;;;;;;;8.60;4.28;;;;;;;21.92;69.13;101310.08;5036258;57;1138926;-76
2023/07/07 22:23:03;;;;;;;13.05;6.00;;;;;;;21.85;69.52;101310.42;5023942;56;1138694;-75
2023/07/07 22:28:22;;;;;;;4.53;4.00;;;;;;;21.71;69.84;101310.12;5099866;57;1140807;-72
2023/07/07 22:33:29;;;;;;;4.55;3.52;;;;;;;21.64;70.12;101311.84;5059419;57;1138845;-77
2023/07/07 22:38:34;;;;;;;12.30;6.78;;;;;;;21.57;70.46;101306.80;5072814;57;1138781;-75
2023/07/07 22:43:40;;;;;;;12.75;5.20;;;;;;;21.47;70.66;101308.84;5134143;57;1140637;-75
2023/07/07 22:48:46;;;;;;;4.10;3.40;;;;;;;21.34;71.02;101311.22;5144483;57;1140937;-75
2023/07/07 22:53:52;;;;;;;10.30;4.03;;;;;;;21.25;71.65;101309.52;5063914;57;1139618;-74
2023/07/07 22:58:59;;;;;;;5.58;3.58;;;;;;;21.12;71.75;101311.84;5054802;57;1141086;-75
2023/07/07 23:04:09;;;;;;;5.12;3.62;;;;;;;21.01;72.25;101308.50;5106492;57;1138644;-75
2023/07/07 23:09:45;;;;;;;8.70;3.90;;;;;;;20.98;72.98;101310.67;5054269;57;1138630;-74
2023/07/07 23:14:48;;;;;;;3.50;3.30;;;;;;;20.93;73.28;101310.36;4891514;59;1138898;-73
2023/07/07 23:19:59;;;;;;;8.98;3.72;;;;;;;20.79;72.67;101303.76;5009284;57;1138756;-73
2023/07/07 23:25:08;;;;;;;3.95;3.60;;;;;;;20.63;73.30;101309.11;5020879;57;1138464;-71